Time;durP1;ratioP1;P1;durP2;ratioP2;P2;SDS_P1;SDS_P2;PMS_P1;PMS_P2;Temp;Humidity;BMP_temperature;BMP_pressure;BME280_temperature;BME280_humidity;BME280_pressure;Samples;Min_cycle;Max_cycle;Signal;HPM_P1;HPM_P2
2023/10/17 00:00:45;;;;;;;8.80;5.78;;;8.60;99.90;;;;;;5042873;28;20127;-59
2023/10/17 00:03:00;;;;;;;9.30;6.63;;;8.50;99.90;;;;;;5031136;28;20399;-59
2023/10/17 00:05:26;;;;;;;11.10;5.97;;;8.50;99.90;;;;;;5028683;28;20033;-57
2023/10/17 00:07:52;;;;;;;11.75;6.10;;;8.50;99.90;;;;;;5028958;28;20041;-59
2023/10/17 00:10:18;;;;;;;7.72;5.28;;;8.50;99.90;;;;;;5044528;28;20041;-58
2023/10/17 00:13:08;;;;;;;8.10;5.78;;;8.50;99.90;;;;;;5044231;28;20546;-58
2023/10/17 00:15:35;;;;;;;12.50;6.78;;;8.60;99.90;;;;;;5041178;28;20045;-59
2023/10/17 00:18:14;;;;;;;10.70;5.50;;;8.60;99.90;;;;;;5044099;28;20045;-57
2023/10/17 00:20:40;;;;;;;15.27;6.03;;;8.50;99.90;;;;;;5041555;28;20416;-59
2023/10/17 00:23:08;;;;;;;11.73;6.78;;;8.50;99.90;;;;;;5043489;28;20049;-59
2023/10/17 00:25:35;;;;;;;14.30;7.55;;;8.60;99.90;;;;;;5043115;28;20553;-58
2023/10/17 00:28:02;;;;;;;12.77;6.78;;;8.60;99.90;;;;;;5025709;28;20539;-59
2023/10/17 00:30:30;;;;;;;10.15;7.40;;;8.60;99.90;;;;;;5056080;28;20519;-59
2023/10/17 00:32:55;;;;;;;12.05;7.60;;;8.60;99.90;;;;;;5044918;28;20041;-59
2023/10/17 00:35:25;;;;;;;8.68;5.47;;;8.60;99.90;;;;;;5044869;28;20048;-59
2023/10/17 00:37:58;;;;;;;10.88;6.38;;;8.60;99.90;;;;;;5037059;28;20064;-59
2023/10/17 00:40:34;;;;;;;6.80;5.38;;;8.70;99.90;;;;;;5040528;28;20041;-59
2023/10/17 00:43:03;;;;;;;11.38;6.53;;;8.60;99.90;;;;;;5041463;28;20075;-58
2023/10/17 00:45:29;;;;;;;11.93;6.50;;;8.70;99.90;;;;;;5044962;28;20040;-59
2023/10/17 00:47:55;;;;;;;7.85;4.60;;;8.70;99.90;;;;;;5043597;28;20036;-59
2023/10/17 00:50:21;;;;;;;11.25;6.82;;;8.70;99.90;;;;;;5023210;28;20452;-59
2023/10/17 00:52:49;;;;;;;9.18;5.20;;;8.70;99.90;;;;;;5022072;28;20048;-59
2023/10/17 00:55:15;;;;;;;10.98;5.82;;;8.70;99.90;;;;;;5033490;28;20451;-59
2023/10/17 00:57:41;;;;;;;10.55;6.57;;;8.70;99.90;;;;;;5037130;28;20096;-59
2023/10/17 01:03:01;;;;;;;9.82;6.20;;;8.70;99.90;;;;;;5034104;28;20053;-59
2023/10/17 01:05:26;;;;;;;8.52;7.22;;;8.70;99.90;;;;;;5040325;28;20037;-59
2023/10/17 01:07:52;;;;;;;11.85;6.40;;;8.80;99.90;;;;;;5038190;28;20349;-59
2023/10/17 01:10:18;;;;;;;11.45;6.45;;;8.70;99.90;;;;;;5042217;28;20041;-59
2023/10/17 01:13:00;;;;;;;8.93;6.20;;;8.60;99.90;;;;;;5042483;28;20059;-58
2023/10/17 01:15:28;;;;;;;13.02;6.80;;;8.70;99.90;;;;;;5041032;28;20045;-58
2023/10/17 01:17:57;;;;;;;8.00;5.63;;;8.70;99.90;;;;;;5040220;28;20457;-59
2023/10/17 01:20:23;;;;;;;11.68;6.30;;;8.70;99.90;;;;;;5023837;28;20041;-59
2023/10/17 01:22:49;;;;;;;9.63;6.10;;;8.70;99.90;;;;;;5037344;28;20041;-59
2023/10/17 01:25:29;;;;;;;9.85;6.18;;;8.70;99.90;;;;;;5038087;28;20045;-58
2023/10/17 01:27:57;;;;;;;9.95;5.45;;;8.70;99.90;;;;;;5040307;28;20037;-59
2023/10/17 01:30:29;;;;;;;7.55;5.10;;;8.70;99.90;;;;;;5041405;28;20249;-59
2023/10/17 01:32:56;;;;;;;8.27;5.90;;;8.60;99.90;;;;;;5043044;28;20090;-59
2023/10/17 01:35:23;;;;;;;9.30;6.55;;;8.60;99.90;;;;;;5040287;28;20518;-59
2023/10/17 01:37:49;;;;;;;8.57;5.88;;;8.60;99.90;;;;;;5042052;28;20048;-59
2023/10/17 01:40:28;;;;;;;8.73;5.30;;;8.50;99.90;;;;;;5044229;28;20238;-59
2023/10/17 01:42:57;;;;;;;11.77;6.15;;;8.60;99.90;;;;;;5027868;28;20033;-59
2023/10/17 01:45:26;;;;;;;7.32;4.80;;;8.50;99.90;;;;;;5041697;28;20033;-59
2023/10/17 01:47:53;;;;;;;7.55;5.25;;;8.50;99.90;;;;;;5043464;28;20120;-59
2023/10/17 01:50:20;;;;;;;11.52;5.50;;;8.50;99.90;;;;;;5023883;28;20125;-58
2023/10/17 01:52:46;;;;;;;10.40;5.45;;;8.60;99.90;;;;;;5042398;28;20036;-57
2023/10/17 01:55:15;;;;;;;7.38;5.20;;;8.50;99.90;;;;;;5043412;28;20048;-58
2023/10/17 01:57:46;;;;;;;8.90;4.85;;;8.40;99.90;;;;;;5042728;28;20076;-57
2023/10/17 02:02:55;;;;;;;10.30;5.55;;;8.30;99.90;;;;;;5044165;28;20053;-57
2023/10/17 02:05:21;;;;;;;10.30;5.93;;;8.20;99.90;;;;;;5037010;28;20071;-59
2023/10/17 02:07:47;;;;;;;10.90;5.50;;;8.10;99.90;;;;;;5033638;28;20049;-57
2023/10/17 02:10:17;;;;;;;7.88;5.60;;;8.10;99.90;;;;;;5041780;28;20113;-58
2023/10/17 02:12:47;;;;;;;8.45;5.10;;;8.00;99.90;;;;;;5023743;28;20040;-58
2023/10/17 02:15:19;;;;;;;7.45;5.43;;;7.90;99.90;;;;;;5037650;28;20041;-58
2023/10/17 02:17:45;;;;;;;9.00;5.10;;;7.90;99.90;;;;;;5038998;28;20041;-57
2023/10/17 02:20:53;;;;;;;7.32;4.43;;;7.90;99.90;;;;;;5042043;28;20142;-58
2023/10/17 02:23:48;;;;;;;10.07;5.18;;;7.80;99.90;;;;;;5033543;28;20415;-57
2023/10/17 02:25:50;;;;;;;6.45;4.20;;;7.80;99.90;;;;;;5052044;28;20078;-58
2023/10/17 02:28:16;;;;;;;6.25;4.63;;;7.80;99.90;;;;;;5020264;28;20044;-58
2023/10/17 02:30:44;;;;;;;7.72;4.63;;;7.80;99.90;;;;;;5057227;28;20480;-58
2023/10/17 02:33:19;;;;;;;7.35;5.20;;;7.80;99.90;;;;;;5040192;28;20037;-59
2023/10/17 02:38:52;;;;;;;11.27;5.32;;;7.80;99.90;;;;;;5009126;28;20049;-58
2023/10/17 02:41:18;;;;;;;5.82;4.05;;;7.70;99.90;;;;;;5045330;28;20072;-58
2023/10/17 02:43:50;;;;;;;6.32;4.07;;;7.60;99.90;;;;;;5040687;28;20048;-58
2023/10/17 02:46:18;;;;;;;8.35;4.78;;;7.60;99.90;;;;;;5053649;28;20442;-60
2023/10/17 02:48:47;;;;;;;8.63;5.28;;;7.60;99.90;;;;;;5042502;28;20063;-58
2023/10/17 02:51:36;;;;;;;7.60;4.60;;;7.50;99.90;;;;;;5041393;28;20087;-58
2023/10/17 02:54:05;;;;;;;7.72;4.90;;;7.40;99.90;;;;;;5036870;28;20468;-57
2023/10/17 02:56:36;;;;;;;8.45;4.13;;;7.40;99.90;;;;;;5039944;28;20182;-58
2023/10/17 02:59:06;;;;;;;7.28;4.43;;;7.40;99.90;;;;;;5035954;28;20032;-58
2023/10/17 03:01:45;;;;;;;8.90;4.88;;;7.40;99.90;;;;;;5056005;28;20060;-58
2023/10/17 03:04:17;;;;;;;8.48;4.97;;;7.30;99.90;;;;;;5041634;28;20630;-57
2023/10/17 03:06:49;;;;;;;8.93;4.95;;;7.30;99.90;;;;;;5039585;28;20040;-56
2023/10/17 03:09:16;;;;;;;7.75;4.65;;;7.30;99.90;;;;;;5033330;28;20622;-57
2023/10/17 03:12:06;;;;;;;11.10;4.90;;;7.20;99.90;;;;;;5046821;28;20059;-55
2023/10/17 03:14:40;;;;;;;9.40;4.93;;;7.10;99.90;;;;;;5035880;28;20107;-54
2023/10/17 03:17:09;;;;;;;9.07;5.07;;;7.20;99.90;;;;;;5039180;28;20048;-55
2023/10/17 03:19:36;;;;;;;10.95;5.75;;;7.10;99.90;;;;;;5022856;28;20045;-57
2023/10/17 03:22:16;;;;;;;8.10;5.18;;;7.10;99.90;;;;;;5005798;28;20128;-56
2023/10/17 03:24:46;;;;;;;9.10;5.25;;;7.10;99.90;;;;;;5039119;28;20077;-58
2023/10/17 03:27:26;;;;;;;9.68;6.07;;;7.10;99.90;;;;;;5038072;28;20098;-56
2023/10/17 03:29:52;;;;;;;9.35;5.25;;;7.10;99.90;;;;;;5038458;28;20045;-57
2023/10/17 03:32:21;;;;;;;11.00;4.90;;;7.00;99.90;;;;;;5043287;28;20088;-57
2023/10/17 03:34:56;;;;;;;10.32;5.82;;;7.10;99.90;;;;;;5023276;28;20107;-56
2023/10/17 03:39:55;;;;;;;7.85;5.43;;;7.20;99.90;;;;;;5038985;28;20068;-58
2023/10/17 03:45:13;;;;;;;10.70;6.65;;;7.30;99.90;;;;;;5043646;28;20547;-58
2023/10/17 03:47:47;;;;;;;22.55;11.68;;;7.30;99.90;;;;;;5044026;28;20037;-57
2023/10/17 03:50:31;;;;;;;18.02;10.05;;;7.40;99.90;;;;;;5028766;28;20094;-57
2023/10/17 03:53:04;;;;;;;12.90;7.65;;;7.40;99.90;;;;;;5047356;28;20048;-59
2023/10/17 03:55:30;;;;;;;12.60;7.78;;;7.40;99.90;;;;;;5049198;28;20033;-58
2023/10/17 03:57:59;;;;;;;15.05;7.47;;;7.40;99.90;;;;;;5047152;28;20495;-59
2023/10/17 04:00:34;;;;;;;13.35;7.47;;;7.40;99.90;;;;;;5042163;28;20117;-59
2023/10/17 04:03:04;;;;;;;10.95;6.20;;;7.30;99.90;;;;;;5043989;28;20075;-58
2023/10/17 04:05:33;;;;;;;9.43;6.85;;;7.30;99.90;;;;;;5030345;28;20055;-55
2023/10/17 04:08:00;;;;;;;9.80;6.13;;;7.40;99.90;;;;;;5044827;28;20037;-59
2023/10/17 04:10:35;;;;;;;7.60;4.90;;;7.40;99.90;;;;;;5060842;28;20094;-57
2023/10/17 04:13:34;;;;;;;5.95;3.90;;;7.30;99.90;;;;;;5030434;28;20041;-59
2023/10/17 04:15:54;;;;;;;6.22;4.28;;;7.30;99.90;;;;;;5042496;28;20403;-59
2023/10/17 04:18:22;;;;;;;7.60;4.45;;;7.20;99.90;;;;;;5039987;28;20049;-59
2023/10/17 04:20:48;;;;;;;8.32;3.80;;;7.10;99.90;;;;;;5043323;28;20492;-59
2023/10/17 04:23:21;;;;;;;5.55;4.18;;;7.10;99.90;;;;;;5036991;28;20037;-58
2023/10/17 04:25:54;;;;;;;10.23;4.82;;;7.10;99.90;;;;;;5035032;28;20037;-58
2023/10/17 04:28:19;;;;;;;5.97;4.13;;;7.10;99.90;;;;;;5036841;28;20041;-58
2023/10/17 04:30:48;;;;;;;9.57;5.07;;;7.10;99.90;;;;;;5045068;28;20530;-57
2023/10/17 04:33:14;;;;;;;6.65;4.38;;;7.10;99.90;;;;;;5045966;28;20033;-59
2023/10/17 04:35:53;;;;;;;5.20;3.65;;;7.10;99.90;;;;;;5024412;28;20179;-58
2023/10/17 04:38:19;;;;;;;8.40;6.18;;;7.10;99.90;;;;;;5026907;28;20395;-58
2023/10/17 04:42:04;;;;;;;11.05;8.23;;;7.00;99.90;;;;;;5046075;28;20515;-57
2023/10/17 04:43:54;;;;;;;12.60;8.90;;;7.00;99.90;;;;;;5038226;28;20101;-58
2023/10/17 04:46:25;;;;;;;11.23;8.32;;;7.00;99.90;;;;;;5040177;28;20037;-59
2023/10/17 04:48:55;;;;;;;14.13;9.05;;;7.00;99.90;;;;;;5038101;28;20569;-59
2023/10/17 04:51:25;;;;;;;10.73;8.00;;;7.00;99.90;;;;;;5038240;28;20069;-59
2023/10/17 04:53:51;;;;;;;10.95;8.40;;;6.90;99.90;;;;;;5026198;28;20037;-59
2023/10/17 04:56:21;;;;;;;10.98;7.53;;;6.90;99.90;;;;;;5044972;28;20445;-58
2023/10/17 05:01:41;;;;;;;10.50;6.35;;;6.90;99.90;;;;;;5045305;28;20045;-59
2023/10/17 05:04:20;;;;;;;9.13;5.90;;;6.90;99.90;;;;;;5040958;28;20091;-57
2023/10/17 06:18:07;;;;;;;10.80;7.28;;;6.70;99.90;;;;;;5041633;28;19925;-57
2023/10/17 06:24:05;;;;;;;;;;;6.60;99.90;;;;;;5040332;28;20049;-58
2023/10/17 06:26:46;;;;;;;10.73;5.97;;;6.50;99.90;;;;;;5036539;28;19932;-58
2023/10/17 06:34:20;;;;;;;5.85;4.47;;;6.40;99.90;;;;;;5037593;28;20603;-58
2023/10/17 06:36:50;;;;;;;7.10;4.70;;;6.40;99.90;;;;;;5033637;28;20044;-57
2023/10/17 06:39:19;;;;;;;7.53;4.93;;;6.50;99.90;;;;;;5036983;28;20060;-58
2023/10/17 06:41:46;;;;;;;10.70;5.05;;;6.50;99.90;;;;;;5029991;28;20045;-57
2023/10/17 06:44:33;;;;;;;8.43;4.40;;;6.40;99.90;;;;;;5026773;28;20110;-58
2023/10/17 06:47:07;;;;;;;8.65;4.10;;;6.50;99.90;;;;;;5038110;28;20102;-56
2023/10/17 06:54:52;;;;;;;10.35;4.20;;;6.70;99.90;;;;;;5039067;28;20136;-59
2023/10/17 06:57:24;;;;;;;8.77;4.15;;;6.80;99.90;;;;;;5058480;28;20072;-58
2023/10/17 06:59:52;;;;;;;9.50;4.90;;;6.90;99.90;;;;;;5042353;28;20051;-58
2023/10/17 07:02:27;;;;;;;6.15;3.70;;;6.90;99.90;;;;;;5023460;28;20140;-58
2023/10/17 07:04:55;;;;;;;6.93;5.03;;;6.90;99.90;;;;;;5058325;28;20037;-57
2023/10/17 07:07:24;;;;;;;14.27;6.07;;;6.90;99.90;;;;;;5043232;28;20437;-57
2023/10/17 07:09:56;;;;;;;10.98;6.20;;;6.90;99.90;;;;;;5043198;28;20456;-57
2023/10/17 07:12:22;;;;;;;12.50;6.65;;;7.00;99.90;;;;;;5027763;28;20045;-56
2023/10/17 07:14:52;;;;;;;9.57;6.13;;;7.00;99.90;;;;;;5045731;28;20784;-57
2023/10/17 07:17:26;;;;;;;9.90;4.80;;;7.10;99.90;;;;;;5043190;28;20051;-57
2023/10/17 07:20:12;;;;;;;11.05;5.13;;;7.20;99.90;;;;;;5041246;28;20044;-58
2023/10/17 07:22:40;;;;;;;11.52;4.70;;;7.20;99.90;;;;;;5039976;28;20053;-59
2023/10/17 07:25:16;;;;;;;5.43;4.03;;;7.30;99.90;;;;;;5026553;28;20070;-56
2023/10/17 07:27:44;;;;;;;6.97;3.88;;;7.40;99.90;;;;;;5040223;28;20124;-57
2023/10/17 07:30:13;;;;;;;7.93;4.13;;;7.50;99.90;;;;;;5026760;28;20044;-58
2023/10/17 07:32:45;;;;;;;5.57;2.90;;;7.60;99.90;;;;;;5044719;28;20416;-58
2023/10/17 07:35:16;;;;;;;7.50;3.97;;;7.60;99.90;;;;;;5045059;28;21011;-57
2023/10/17 07:37:53;;;;;;;5.63;3.38;;;7.70;99.90;;;;;;5038073;28;20484;-57
2023/10/17 07:40:31;;;;;;;7.25;2.92;;;7.90;99.90;;;;;;5029178;28;20037;-58
2023/10/17 07:43:00;;;;;;;5.88;2.83;;;8.00;99.90;;;;;;5063444;28;20423;-58
2023/10/17 07:45:37;;;;;;;6.15;2.95;;;8.10;99.90;;;;;;5045008;28;20491;-59
2023/10/17 07:48:04;;;;;;;6.32;2.50;;;8.30;99.90;;;;;;5041898;28;20537;-57
2023/10/17 07:50:33;;;;;;;17.25;9.02;;;8.50;99.90;;;;;;5043835;28;20549;-59
2023/10/17 07:53:05;;;;;;;23.40;12.93;;;8.50;99.90;;;;;;5044200;28;20299;-56
2023/10/17 07:55:38;;;;;;;10.27;4.28;;;8.60;99.90;;;;;;5024864;28;20048;-57
2023/10/17 07:58:07;;;;;;;36.20;18.05;;;8.80;99.90;;;;;;5041239;28;20037;-57
2023/10/17 08:00:33;;;;;;;36.08;17.08;;;8.90;99.90;;;;;;5043497;28;20049;-57
2023/10/17 08:03:14;;;;;;;14.43;6.30;;;9.10;99.90;;;;;;5043850;28;20393;-58
2023/10/17 08:08:33;;;;;;;7.32;3.20;;;9.30;99.90;;;;;;5041769;28;20294;-57
2023/10/17 08:10:59;;;;;;;6.55;2.88;;;9.40;99.90;;;;;;5044936;28;20036;-57
2023/10/17 08:13:26;;;;;;;5.50;2.75;;;9.50;99.90;;;;;;5041512;28;20407;-58
2023/10/17 08:15:53;;;;;;;5.60;2.90;;;9.60;99.90;;;;;;5036460;28;20049;-58
2023/10/17 08:18:22;;;;;;;6.00;2.83;;;9.70;99.90;;;;;;5042301;28;20069;-57
2023/10/17 08:23:34;;;;;;;9.88;2.70;;;9.80;99.90;;;;;;5040713;28;20478;-57
2023/10/17 08:26:03;;;;;;;4.97;2.28;;;9.90;99.90;;;;;;5044394;28;20432;-57
2023/10/17 08:31:20;;;;;;;6.25;2.35;;;10.10;99.90;;;;;;5060988;28;20049;-58
2023/10/17 08:36:42;;;;;;;5.57;2.03;;;10.30;99.90;;;;;;5043326;28;20044;-57
2023/10/17 08:42:11;;;;;;;5.88;2.53;;;10.50;99.90;;;;;;5044153;28;20041;-57
2023/10/17 08:44:39;;;;;;;4.38;2.10;;;10.50;99.90;;;;;;5042044;28;20136;-58
2023/10/17 08:47:07;;;;;;;6.72;1.90;;;10.70;99.90;;;;;;5039915;28;20041;-58
2023/10/17 08:49:33;;;;;;;4.38;1.63;;;10.70;99.90;;;;;;5038586;28;20547;-57
2023/10/17 08:51:59;;;;;;;7.70;1.73;;;10.90;99.90;;;;;;5036246;28;20060;-57
2023/10/17 08:54:30;;;;;;;5.07;1.23;;;10.90;99.90;;;;;;5027199;28;20708;-57
2023/10/17 08:57:00;;;;;;;4.53;1.67;;;11.00;99.90;;;;;;5040449;28;20045;-59
2023/10/17 09:02:15;;;;;;;6.45;1.35;;;11.20;99.90;;;;;;5040416;28;20421;-58
2023/10/17 09:04:44;;;;;;;;;;;11.30;99.90;;;;;;5041443;28;20049;-59
2023/10/17 09:07:18;;;;;;;3.78;1.10;;;11.30;99.90;;;;;;5042229;28;19930;-58
2023/10/17 09:09:47;;;;;;;4.43;1.20;;;11.40;99.90;;;;;;5041822;28;20053;-59
2023/10/17 09:12:19;;;;;;;4.22;1.30;;;11.50;99.90;;;;;;5039237;28;20044;-58
2023/10/17 09:14:49;;;;;;;5.57;1.63;;;11.60;99.90;;;;;;5018977;28;20120;-56
2023/10/17 09:17:28;;;;;;;4.75;0.98;;;11.60;99.90;;;;;;5049745;28;20434;-59
2023/10/17 09:19:56;;;;;;;3.47;1.30;;;11.70;99.90;;;;;;5041580;28;20373;-58
2023/10/17 09:22:23;;;;;;;2.72;1.10;;;11.90;99.90;;;;;;5048146;28;20504;-59
2023/10/17 09:24:50;;;;;;;6.10;1.20;;;12.00;99.90;;;;;;5046687;28;20068;-59
2023/10/17 09:27:17;;;;;;;4.78;1.52;;;12.10;99.90;;;;;;5044665;28;20040;-57
2023/10/17 09:29:45;;;;;;;2.75;1.00;;;12.30;99.90;;;;;;5044339;28;20503;-59
2023/10/17 09:32:10;;;;;;;5.38;1.50;;;12.40;99.90;;;;;;5028306;28;20055;-58
2023/10/17 09:34:38;;;;;;;2.10;1.02;;;12.50;99.90;;;;;;5027563;28;20131;-59
2023/10/17 09:37:05;;;;;;;3.28;1.08;;;12.60;99.90;;;;;;5038370;28;20070;-59
2023/10/17 09:39:39;;;;;;;2.13;0.93;;;12.70;99.90;;;;;;5038086;28;20037;-58
2023/10/17 09:42:05;;;;;;;4.43;1.05;;;12.70;99.90;;;;;;5038358;28;20059;-58
2023/10/17 09:44:32;;;;;;;4.20;1.00;;;12.70;99.90;;;;;;5025373;28;20068;-56
2023/10/17 09:47:01;;;;;;;3.90;1.30;;;12.90;99.90;;;;;;5042332;28;20084;-57
2023/10/17 09:49:48;;;;;;;3.55;1.10;;;13.00;99.90;;;;;;5026758;28;20044;-59
2023/10/17 09:52:19;;;;;;;6.32;2.08;;;13.10;99.90;;;;;;5031512;28;20069;-58
2023/10/17 09:54:51;;;;;;;3.13;0.80;;;13.10;99.90;;;;;;5038283;28;20049;-58
2023/10/17 09:57:20;;;;;;;3.25;1.20;;;13.10;99.90;;;;;;5042401;28;20170;-58
2023/10/17 10:00:14;;;;;;;3.40;0.90;;;13.20;99.90;;;;;;5047455;28;20041;-57
2023/10/17 10:02:43;;;;;;;3.35;1.00;;;13.30;99.90;;;;;;5043478;28;20047;-58
2023/10/17 10:05:30;;;;;;;5.13;1.30;;;13.30;99.90;;;;;;5027097;28;20047;-58
2023/10/17 10:08:03;;;;;;;5.25;1.30;;;13.50;99.90;;;;;;5046755;28;20033;-59
2023/10/17 10:10:42;;;;;;;4.32;1.00;;;13.70;99.90;;;;;;5046595;28;20098;-58
2023/10/17 10:13:13;;;;;;;3.60;1.13;;;13.70;99.90;;;;;;5042124;28;20052;-58
2023/10/17 10:15:59;;;;;;;4.60;1.42;;;13.70;99.90;;;;;;5042933;28;20488;-59
2023/10/17 10:18:43;;;;;;;3.58;1.48;;;13.60;99.90;;;;;;5040587;28;20044;-59
2023/10/17 10:21:09;;;;;;;3.75;1.35;;;13.50;99.90;;;;;;5040758;28;20060;-61
2023/10/17 10:23:41;;;;;;;2.58;1.15;;;13.60;99.90;;;;;;5040264;28;20052;-60
2023/10/17 10:26:19;;;;;;;5.22;1.30;;;13.70;99.90;;;;;;5039472;28;20129;-60
2023/10/17 10:28:52;;;;;;;4.22;1.48;;;13.70;99.90;;;;;;5040333;28;20045;-59
2023/10/17 10:31:30;;;;;;;3.72;1.40;;;13.80;99.90;;;;;;5043664;28;20484;-60
2023/10/17 10:33:58;;;;;;;3.15;1.23;;;13.80;99.90;;;;;;5043070;28;20084;-61
2023/10/17 10:36:24;;;;;;;5.13;1.42;;;14.10;99.90;;;;;;5039948;28;20802;-62
2023/10/17 10:38:55;;;;;;;4.45;1.70;;;14.30;99.90;;;;;;5057765;28;20056;-60
2023/10/17 10:41:25;;;;;;;3.72;1.30;;;14.40;99.90;;;;;;5041965;28;20399;-58
2023/10/17 10:44:01;;;;;;;5.43;1.30;;;14.40;99.90;;;;;;5025745;28;20041;-60
2023/10/17 10:46:28;;;;;;;3.72;1.40;;;14.50;99.90;;;;;;5040132;28;20043;-61
2023/10/17 10:48:54;;;;;;;2.97;1.30;;;14.50;99.90;;;;;;5038370;28;20045;-60
2023/10/17 10:51:26;;;;;;;5.05;1.20;;;14.50;99.90;;;;;;5043048;28;20056;-60
2023/10/17 10:53:56;;;;;;;4.75;1.08;;;14.30;99.90;;;;;;5032385;28;20052;-61
2023/10/17 10:56:25;;;;;;;4.75;1.65;;;14.40;99.90;;;;;;5043135;28;20163;-60
2023/10/17 10:58:55;;;;;;;3.67;1.10;;;14.40;99.90;;;;;;5020075;28;20045;-61
2023/10/17 11:01:21;;;;;;;3.88;1.30;;;14.40;99.90;;;;;;5040392;28;20052;-59
2023/10/17 11:03:48;;;;;;;3.58;1.73;;;14.40;99.90;;;;;;5025140;28;20049;-61
2023/10/17 11:06:19;;;;;;;2.15;0.90;;;14.40;99.90;;;;;;5040501;28;20094;-60
2023/10/17 11:08:46;;;;;;;3.30;1.40;;;14.40;99.90;;;;;;5034627;28;20044;-59
2023/10/17 11:11:16;;;;;;;4.50;1.40;;;14.40;99.90;;;;;;5047974;28;20911;-59
2023/10/17 11:13:52;;;;;;;3.08;1.60;;;14.40;99.90;;;;;;5040262;28;20041;-59
2023/10/17 11:16:27;;;;;;;5.10;1.20;;;14.50;99.90;;;;;;5038825;28;20051;-61
2023/10/17 11:18:53;;;;;;;5.70;1.27;;;14.60;99.90;;;;;;5042545;28;20044;-61
2023/10/17 11:21:21;;;;;;;4.13;1.38;;;14.60;99.90;;;;;;5013927;28;20297;-60
2023/10/17 11:23:54;;;;;;;4.13;0.90;;;14.70;99.90;;;;;;5039703;28;20033;-60
2023/10/17 11:26:22;;;;;;;;;;;14.60;99.90;;;;;;5049919;28;20072;-61
2023/10/17 11:28:51;;;;;;;4.30;1.27;;;14.60;99.60;;;;;;5045135;28;20019;-60
2023/10/17 11:31:24;;;;;;;3.58;1.05;;;14.70;99.90;;;;;;5026196;28;20037;-60
2023/10/17 11:34:24;;;;;;;5.00;0.90;;;14.90;99.90;;;;;;5044641;28;20041;-61
2023/10/17 11:36:55;;;;;;;3.28;1.30;;;15.10;99.90;;;;;;5041674;28;20315;-57
2023/10/17 11:39:26;;;;;;;4.28;1.40;;;15.00;99.20;;;;;;5027535;28;20322;-60
2023/10/17 11:41:55;;;;;;;3.15;1.20;;;14.80;98.90;;;;;;5031034;28;20046;-56
2023/10/17 11:44:25;;;;;;;8.77;1.30;;;14.70;99.00;;;;;;5034752;28;20069;-54
2023/10/17 11:46:55;;;;;;;2.80;1.20;;;14.70;99.50;;;;;;5031295;28;20095;-59
2023/10/17 11:49:27;;;;;;;3.95;1.27;;;14.70;98.70;;;;;;5038717;28;20475;-59
2023/10/17 11:52:00;;;;;;;1.73;0.90;;;14.60;99.00;;;;;;5052368;28;20116;-62
2023/10/17 11:54:29;;;;;;;4.45;1.15;;;14.70;99.50;;;;;;5013263;28;20045;-60
2023/10/17 11:57:07;;;;;;;4.53;1.00;;;14.90;99.50;;;;;;5048029;28;20049;-59
2023/10/17 11:59:33;;;;;;;3.13;1.02;;;14.90;98.50;;;;;;5043171;28;20041;-60
2023/10/17 12:02:02;;;;;;;1.65;0.70;;;14.80;98.80;;;;;;5046568;28;20029;-62
2023/10/17 12:04:29;;;;;;;2.45;1.15;;;14.80;98.90;;;;;;5026939;28;20048;-60
2023/10/17 12:06:55;;;;;;;3.17;1.10;;;14.90;98.60;;;;;;5045385;28;20043;-59
2023/10/17 12:09:23;;;;;;;3.28;1.40;;;14.90;99.00;;;;;;5049580;28;20044;-59
2023/10/17 12:11:51;;;;;;;5.07;1.42;;;15.20;98.90;;;;;;5047994;28;20045;-59
2023/10/17 12:14:20;;;;;;;3.30;1.45;;;15.20;99.00;;;;;;5046528;28;20043;-61
2023/10/17 12:16:58;;;;;;;2.72;1.00;;;15.40;99.00;;;;;;5043754;28;20404;-61
2023/10/17 12:19:26;;;;;;;4.43;1.65;;;15.50;98.70;;;;;;5046028;28;20166;-62
2023/10/17 12:22:00;;;;;;;2.75;1.08;;;15.40;98.20;;;;;;5050400;28;20051;-59
2023/10/17 12:24:34;;;;;;;3.55;1.25;;;15.40;98.00;;;;;;5042054;28;20036;-61
2023/10/17 12:27:06;;;;;;;3.03;1.20;;;15.30;98.10;;;;;;5044598;28;20045;-61
2023/10/17 12:29:34;;;;;;;2.38;1.10;;;15.40;97.60;;;;;;5045905;28;20036;-60
2023/10/17 12:32:01;;;;;;;5.45;1.00;;;15.50;98.10;;;;;;5047448;28;20527;-59
2023/10/17 12:34:28;;;;;;;2.83;1.20;;;15.50;97.70;;;;;;5049093;28;20090;-59
2023/10/17 12:36:54;;;;;;;5.40;1.13;;;15.50;97.40;;;;;;5044962;28;20518;-61
2023/10/17 12:39:20;;;;;;;5.35;1.15;;;15.40;97.80;;;;;;5033530;28;20037;-59
2023/10/17 12:41:46;;;;;;;5.57;1.23;;;15.50;98.20;;;;;;5048553;28;20462;-59
2023/10/17 12:44:12;;;;;;;5.03;1.23;;;15.40;97.70;;;;;;5038943;28;20083;-60
2023/10/17 12:46:39;;;;;;;3.38;1.08;;;15.30;97.70;;;;;;5052565;28;20033;-60
2023/10/17 12:49:06;;;;;;;2.97;1.13;;;15.10;97.80;;;;;;5052881;28;20124;-58
2023/10/17 12:51:32;;;;;;;4.57;0.88;;;15.20;98.40;;;;;;5030817;28;20064;-61
2023/10/17 12:53:58;;;;;;;2.67;0.90;;;15.30;97.80;;;;;;5053021;28;20076;-60
2023/10/17 12:56:24;;;;;;;3.42;1.05;;;15.30;98.10;;;;;;5043053;28;20088;-60
2023/10/17 12:58:51;;;;;;;2.50;0.90;;;15.20;98.00;;;;;;5021014;28;20053;-59
2023/10/17 13:01:17;;;;;;;4.90;0.95;;;15.20;98.20;;;;;;5035694;28;20079;-59
2023/10/17 13:03:43;;;;;;;4.32;0.80;;;15.20;97.30;;;;;;5043410;28;20044;-60
2023/10/17 13:06:13;;;;;;;2.95;1.05;;;15.20;97.50;;;;;;5027927;28;20033;-61
2023/10/17 13:08:40;;;;;;;3.25;1.00;;;15.30;98.00;;;;;;5040314;28;20048;-59
2023/10/17 13:11:06;;;;;;;3.30;1.00;;;15.00;97.30;;;;;;5026371;28;20499;-60
2023/10/17 13:13:32;;;;;;;3.15;1.10;;;14.90;97.40;;;;;;5007692;28;20051;-60
2023/10/17 13:15:59;;;;;;;2.30;1.00;;;14.90;97.50;;;;;;5038260;28;20044;-60
2023/10/17 13:18:28;;;;;;;3.63;0.93;;;14.80;97.60;;;;;;5036822;28;20033;-62
2023/10/17 13:20:58;;;;;;;4.63;1.30;;;14.70;98.00;;;;;;5016897;28;20041;-61
2023/10/17 13:23:24;;;;;;;2.75;1.10;;;14.70;97.70;;;;;;5021071;28;20041;-60
2023/10/17 13:25:50;;;;;;;3.67;1.15;;;14.70;97.80;;;;;;5045090;28;20086;-60
2023/10/17 13:28:19;;;;;;;3.42;1.10;;;14.70;97.50;;;;;;5041278;28;20051;-61
2023/10/17 13:30:45;;;;;;;5.38;1.20;;;14.60;98.00;;;;;;5045615;28;20088;-60
2023/10/17 13:33:11;;;;;;;2.38;1.02;;;14.60;98.30;;;;;;5045920;28;20115;-62
2023/10/17 13:35:40;;;;;;;4.75;1.48;;;14.60;98.40;;;;;;5044569;28;20045;-61
2023/10/17 13:38:07;;;;;;;5.82;1.38;;;14.70;98.20;;;;;;5047750;28;20552;-62
2023/10/17 13:40:33;;;;;;;6.63;1.73;;;14.70;98.30;;;;;;5044755;28;20096;-61
2023/10/17 13:43:04;;;;;;;5.13;1.20;;;14.60;97.90;;;;;;5039826;28;20507;-62
2023/10/17 13:45:35;;;;;;;3.95;1.00;;;14.40;98.00;;;;;;5043464;28;20544;-62
2023/10/17 13:48:00;;;;;;;1.70;0.95;;;14.40;98.50;;;;;;5056768;28;20049;-62
2023/10/17 13:50:26;;;;;;;2.30;1.27;;;14.30;98.70;;;;;;5025910;28;20052;-61
2023/10/17 13:53:06;;;;;;;5.05;1.55;;;14.40;98.60;;;;;;5045385;28;20577;-61
2023/10/17 13:55:35;;;;;;;5.15;1.25;;;14.40;98.60;;;;;;5041034;28;20049;-61
2023/10/17 13:58:01;;;;;;;4.13;1.60;;;14.40;98.30;;;;;;5028444;28;20037;-61
2023/10/17 14:00:42;;;;;;;5.75;1.65;;;14.20;98.40;;;;;;5040560;28;20049;-61
2023/10/17 14:03:13;;;;;;;3.78;1.58;;;14.20;98.70;;;;;;5044296;28;20066;-61
2023/10/17 14:05:41;;;;;;;4.35;1.40;;;14.10;98.70;;;;;;5045030;28;20045;-62
2023/10/17 14:08:08;;;;;;;5.05;1.38;;;13.90;98.70;;;;;;5048883;28;20059;-62
2023/10/17 14:10:37;;;;;;;6.07;1.60;;;13.80;99.10;;;;;;5042825;28;20048;-61
2023/10/17 14:13:08;;;;;;;4.05;1.20;;;13.70;99.20;;;;;;5047123;28;20109;-63
2023/10/17 14:15:37;;;;;;;4.30;1.95;;;13.60;99.20;;;;;;5027603;28;20045;-61
2023/10/17 14:18:09;;;;;;;3.47;1.55;;;13.60;99.50;;;;;;5045642;28;20061;-61
2023/10/17 14:20:40;;;;;;;4.28;1.70;;;13.50;99.20;;;;;;5040476;28;20045;-62
2023/10/17 14:23:12;;;;;;;4.05;1.85;;;13.30;99.20;;;;;;5021601;28;20256;-60
2023/10/17 14:28:26;;;;;;;4.95;1.55;;;13.20;99.40;;;;;;5038451;28;20045;-61
2023/10/17 14:30:51;;;;;;;3.45;1.40;;;13.00;99.40;;;;;;5022144;28;20047;-59
2023/10/17 14:33:17;;;;;;;4.65;1.50;;;13.10;99.90;;;;;;5035670;28;20037;-61
2023/10/17 14:35:44;;;;;;;3.75;1.50;;;13.00;99.90;;;;;;5041943;28;20040;-59
2023/10/17 14:38:11;;;;;;;4.05;1.60;;;13.00;99.90;;;;;;5027008;28;20108;-59
2023/10/17 14:40:38;;;;;;;4.18;1.98;;;13.00;99.90;;;;;;5035424;28;20493;-59
2023/10/17 14:43:08;;;;;;;4.15;1.70;;;13.00;99.90;;;;;;5044370;28;20033;-62
2023/10/17 14:45:44;;;;;;;3.95;1.75;;;12.90;99.90;;;;;;5038345;28;20052;-60
2023/10/17 14:48:11;;;;;;;4.30;1.55;;;12.90;99.90;;;;;;5023894;28;20033;-60
2023/10/17 14:50:38;;;;;;;3.33;1.70;;;12.80;99.90;;;;;;5041551;28;20040;-58
2023/10/17 14:53:05;;;;;;;3.88;1.50;;;12.80;99.90;;;;;;5058395;28;20067;-59
2023/10/17 14:55:31;;;;;;;5.45;1.88;;;12.80;99.90;;;;;;5019316;28;20037;-62
2023/10/17 14:57:56;;;;;;;4.22;1.90;;;12.70;99.90;;;;;;5044278;28;20036;-59
2023/10/17 15:00:22;;;;;;;2.67;1.60;;;12.70;99.90;;;;;;5041357;28;20041;-61
2023/10/17 15:02:49;;;;;;;4.78;1.67;;;12.70;99.90;;;;;;5022428;28;20131;-61
2023/10/17 15:05:16;;;;;;;4.63;1.80;;;12.70;99.90;;;;;;5021202;28;20037;-61
2023/10/17 15:07:44;;;;;;;1.98;1.40;;;12.70;99.90;;;;;;5042162;28;20126;-59